createdAt,value
2023-02-16T00:01:35.814Z,100.00
2023-02-16T00:05:37.413Z,100.00
2023-02-16T00:09:38.954Z,100.00
2023-02-16T00:13:49.542Z,100.00
2023-02-16T00:17:51.083Z,100.00
2023-02-16T00:21:59.218Z,100.00
2023-02-16T00:26:00.815Z,100.00
2023-02-16T00:30:03.456Z,100.00
2023-02-16T00:34:26.592Z,100.00
2023-02-16T00:38:29.615Z,100.00
2023-02-16T00:42:34.142Z,100.00
2023-02-16T00:46:35.811Z,100.00
2023-02-16T00:50:37.434Z,100.00
2023-02-16T00:54:39.068Z,100.00
2023-02-16T00:58:40.794Z,100.00
2023-02-16T01:02:44.876Z,100.00
2023-02-16T01:07:05.285Z,100.00
2023-02-16T01:11:11.584Z,100.00
2023-02-16T01:15:26.179Z,100.00
2023-02-16T01:19:27.852Z,100.00
2023-02-16T01:23:32.483Z,100.00
2023-02-16T01:27:35.996Z,100.00
2023-02-16T01:31:37.646Z,100.00
2023-02-16T01:35:39.532Z,100.00
2023-02-16T01:39:41.150Z,100.00
2023-02-16T01:43:47.594Z,100.00
2023-02-16T01:47:56.263Z,100.00
2023-02-16T01:52:19.390Z,100.00
2023-02-16T01:56:52.702Z,100.00
2023-02-16T02:00:55.685Z,100.00
2023-02-16T02:05:21.347Z,100.00
2023-02-16T02:09:35.230Z,100.00
2023-02-16T02:13:49.993Z,100.00
2023-02-16T02:17:51.790Z,100.00
2023-02-16T02:22:33.663Z,100.00
2023-02-16T02:26:50.464Z,100.00
2023-02-16T02:31:09.939Z,100.00
2023-02-16T02:35:44.009Z,100.00
2023-02-16T02:40:27.766Z,100.00
2023-02-16T02:44:31.512Z,100.00
2023-02-16T02:48:35.630Z,100.00
2023-02-16T02:52:38.453Z,100.00
2023-02-16T02:57:02.205Z,100.00
2023-02-16T03:01:06.827Z,100.00
2023-02-16T03:05:11.769Z,100.00
2023-02-16T03:09:16.531Z,100.00
2023-02-16T03:13:30.520Z,100.00
2023-02-16T03:17:57.316Z,100.00
2023-02-16T03:22:18.825Z,100.00
2023-02-16T03:26:39.650Z,100.00
2023-02-16T03:30:44.293Z,100.00
2023-02-16T03:34:45.990Z,100.00
2023-02-16T03:38:48.160Z,100.00
2023-02-16T03:42:51.465Z,100.00
2023-02-16T03:46:53.103Z,100.00
2023-02-16T03:50:54.710Z,100.00
2023-02-16T03:54:56.305Z,100.00
2023-02-16T03:58:58.037Z,100.00
2023-02-16T04:02:59.771Z,100.00
2023-02-16T04:07:02.470Z,100.00
2023-02-16T04:11:24.028Z,100.00
2023-02-16T04:15:28.534Z,100.00
2023-02-16T04:19:30.725Z,100.00
2023-02-16T04:23:32.323Z,100.00
2023-02-16T04:27:34.892Z,100.00
2023-02-16T04:31:36.534Z,100.00
2023-02-16T04:35:38.288Z,100.00
2023-02-16T04:39:39.990Z,100.00
2023-02-16T04:43:41.556Z,100.00
2023-02-16T04:47:43.154Z,100.00
2023-02-16T04:51:44.742Z,100.00
2023-02-16T04:55:48.446Z,100.00
2023-02-16T04:59:50.109Z,100.00
2023-02-16T05:03:51.798Z,100.00
2023-02-16T05:07:53.514Z,100.00
2023-02-16T05:12:13.828Z,100.00
2023-02-16T05:16:15.623Z,100.00
2023-02-16T05:20:17.528Z,100.00
2023-02-16T05:24:19.250Z,100.00
2023-02-16T05:28:20.821Z,100.00
2023-02-16T05:32:22.551Z,100.00
2023-02-16T05:36:24.883Z,100.00
2023-02-16T05:40:28.418Z,100.00
2023-02-16T05:44:29.998Z,100.00
2023-02-16T05:48:32.769Z,100.00
2023-02-16T05:52:34.367Z,100.00
2023-02-16T05:56:36.588Z,100.00
2023-02-16T06:00:38.393Z,100.00
2023-02-16T06:04:39.978Z,100.00
2023-02-16T06:08:41.609Z,100.00
2023-02-16T06:12:44.873Z,100.00
2023-02-16T06:16:51.537Z,100.00
2023-02-16T06:20:53.232Z,100.00
2023-02-16T06:24:54.840Z,100.00
2023-02-16T06:28:56.849Z,100.00
2023-02-16T06:32:59.071Z,100.00
2023-02-16T06:37:00.618Z,100.00
2023-02-16T06:41:02.517Z,100.00
2023-02-16T06:45:05.865Z,100.00
2023-02-16T06:53:21.834Z,100.00
2023-02-16T06:57:23.438Z,100.00
2023-02-16T07:01:26.242Z,100.00
2023-02-16T07:05:27.978Z,100.00
2023-02-16T07:09:30.184Z,100.00
2023-02-16T07:13:36.581Z,100.00
2023-02-16T07:17:38.223Z,100.00
2023-02-16T07:21:40.064Z,100.00
2023-02-16T07:25:41.661Z,100.00
2023-02-16T07:29:44.566Z,100.00
2023-02-16T07:33:46.265Z,100.00
2023-02-16T07:37:47.950Z,100.00
2023-02-16T07:41:49.652Z,100.00
2023-02-16T07:45:53.179Z,100.00
2023-02-16T07:49:54.853Z,100.00
2023-02-16T07:54:00.115Z,100.00
2023-02-16T07:58:01.748Z,100.00
2023-02-16T08:02:03.429Z,100.00
2023-02-16T08:06:06.020Z,100.00
2023-02-16T08:10:08.367Z,100.00
2023-02-16T08:14:10.260Z,100.00
2023-02-16T08:18:12.211Z,100.00
2023-02-16T08:22:13.827Z,100.00
2023-02-16T08:26:19.689Z,100.00
2023-02-16T08:30:24.960Z,100.00
2023-02-16T08:34:27.771Z,100.00
2023-02-16T08:38:29.311Z,100.00
2023-02-16T08:42:30.925Z,100.00
2023-02-16T08:46:34.662Z,100.00
2023-02-16T08:50:36.993Z,100.00
2023-02-16T08:54:39.985Z,100.00
2023-02-16T08:58:41.561Z,100.00
2023-02-16T09:02:43.413Z,100.00
2023-02-16T09:06:48.476Z,100.00
2023-02-16T09:10:53.176Z,100.00
2023-02-16T09:14:54.796Z,100.00
2023-02-16T09:18:57.513Z,100.00
2023-02-16T09:23:00.244Z,100.00
2023-02-16T09:27:01.961Z,100.00
2023-02-16T09:31:17.868Z,100.00
2023-02-16T09:35:20.827Z,100.00
2023-02-16T09:39:22.906Z,100.00
2023-02-16T09:43:45.679Z,100.00
2023-02-16T09:47:49.892Z,100.00
2023-02-16T09:52:04.762Z,100.00
2023-02-16T09:56:25.366Z,100.00
2023-02-16T10:00:51.468Z,100.00
2023-02-16T10:05:14.481Z,100.00
2023-02-16T10:09:18.416Z,100.00
2023-02-16T10:13:37.580Z,100.00
2023-02-16T10:18:03.658Z,100.00
2023-02-16T10:22:08.395Z,100.00
2023-02-16T10:26:18.638Z,100.00
2023-02-16T10:30:23.238Z,100.00
2023-02-16T10:34:40.209Z,100.00
2023-02-16T10:38:47.868Z,100.00
2023-02-16T10:43:14.719Z,100.00
2023-02-16T10:47:37.314Z,100.00
2023-02-16T10:51:41.040Z,100.00
2023-02-16T10:55:44.610Z,100.00
2023-02-16T10:59:49.183Z,100.00
2023-02-16T11:03:53.480Z,100.00
2023-02-16T11:08:05.944Z,100.00
2023-02-16T11:12:26.897Z,100.00
2023-02-16T11:16:29.733Z,100.00
2023-02-16T11:20:32.099Z,100.00
2023-02-16T11:24:38.071Z,100.00
2023-02-16T11:28:43.218Z,100.00
2023-02-16T11:32:44.853Z,100.00
2023-02-16T11:36:47.674Z,100.00
2023-02-16T11:40:55.945Z,100.00
2023-02-16T11:45:01.722Z,100.00
2023-02-16T11:49:30.584Z,100.00
2023-02-16T11:53:35.131Z,100.00
2023-02-16T11:57:37.481Z,100.00
2023-02-16T12:02:02.925Z,99.13
2023-02-16T12:06:31.718Z,97.11
2023-02-16T12:10:41.919Z,95.76
2023-02-16T12:15:15.231Z,95.31
2023-02-16T12:19:21.248Z,96.26
2023-02-16T12:23:47.069Z,96.75
2023-02-16T12:27:51.064Z,98.88
2023-02-16T12:32:30.370Z,98.97
2023-02-16T12:37:09.293Z,98.71
2023-02-16T12:41:41.830Z,98.52
2023-02-16T12:45:45.950Z,97.91
2023-02-16T12:49:58.247Z,93.62
2023-02-16T12:54:10.070Z,88.44
2023-02-16T12:58:28.906Z,84.71
2023-02-16T13:02:40.565Z,81.30
2023-02-16T13:07:18.066Z,80.47
2023-02-16T13:11:25.923Z,81.14
2023-02-16T13:15:49.510Z,82.76
2023-02-16T13:19:52.462Z,81.82
2023-02-16T13:24:08.518Z,81.64
2023-02-16T13:28:40.986Z,82.91
2023-02-16T13:32:52.390Z,84.40
2023-02-16T13:37:15.504Z,85.00
2023-02-16T13:41:29.798Z,85.32
2023-02-16T13:45:37.837Z,84.72
2023-02-16T13:49:44.558Z,85.24
2023-02-16T13:54:00.020Z,86.07
2023-02-16T13:58:14.116Z,86.92
2023-02-16T14:02:52.640Z,87.91
2023-02-16T14:07:03.567Z,88.67
2023-02-16T14:11:08.523Z,88.86
2023-02-16T14:15:20.032Z,89.52
2023-02-16T14:19:25.437Z,89.43
2023-02-16T14:23:34.710Z,89.26
2023-02-16T14:27:45.413Z,88.02
2023-02-16T14:32:06.076Z,87.95
2023-02-16T14:36:15.923Z,87.89
2023-02-16T14:40:21.585Z,87.92
2023-02-16T14:44:45.987Z,88.29
2023-02-16T14:49:07.668Z,87.82
2023-02-16T14:53:26.389Z,87.26
2023-02-16T14:57:36.598Z,87.79
2023-02-16T15:01:40.297Z,88.33
2023-02-16T15:05:42.634Z,89.60
2023-02-16T15:09:45.994Z,91.28
2023-02-16T15:13:55.093Z,91.75
2023-02-16T15:17:56.974Z,92.22
2023-02-16T15:22:31.824Z,93.72
2023-02-16T15:26:36.456Z,94.36
2023-02-16T15:31:03.391Z,95.13
2023-02-16T15:35:32.934Z,95.81
2023-02-16T15:39:45.503Z,96.39
2023-02-16T15:43:52.249Z,97.37
2023-02-16T15:47:53.892Z,98.24
2023-02-16T15:51:57.397Z,98.91
2023-02-16T15:55:59.721Z,99.35
2023-02-16T16:00:19.456Z,99.88
2023-02-16T16:04:24.036Z,100.00
2023-02-16T16:08:28.065Z,100.00
2023-02-16T16:12:30.517Z,100.00
2023-02-16T16:16:32.724Z,100.00
2023-02-16T16:20:41.741Z,100.00
2023-02-16T16:24:47.824Z,100.00
2023-02-16T16:28:50.051Z,100.00
2023-02-16T16:33:07.625Z,100.00
2023-02-16T16:37:31.255Z,100.00
2023-02-16T16:41:33.798Z,100.00
2023-02-16T16:45:46.684Z,100.00
2023-02-16T16:49:58.885Z,100.00
2023-02-16T16:54:04.270Z,100.00
2023-02-16T16:58:10.303Z,100.00
2023-02-16T17:02:11.993Z,100.00
2023-02-16T17:06:14.256Z,100.00
2023-02-16T17:10:17.910Z,100.00
2023-02-16T17:14:21.138Z,100.00
2023-02-16T17:18:23.245Z,100.00
2023-02-16T17:22:24.890Z,100.00
2023-02-16T17:26:26.637Z,100.00
2023-02-16T17:30:28.300Z,100.00
2023-02-16T17:34:30.042Z,100.00
2023-02-16T17:38:31.944Z,100.00
2023-02-16T17:42:34.004Z,100.00
2023-02-16T17:46:37.539Z,100.00
2023-02-16T17:50:39.120Z,100.00
2023-02-16T17:54:40.828Z,100.00
2023-02-16T17:58:43.483Z,100.00
2023-02-16T18:02:45.207Z,100.00
2023-02-16T18:06:46.787Z,100.00
2023-02-16T18:10:52.080Z,100.00
2023-02-16T18:14:53.722Z,100.00
2023-02-16T18:18:57.377Z,100.00
2023-02-16T18:22:59.401Z,100.00
2023-02-16T18:27:03.059Z,100.00
2023-02-16T18:31:07.104Z,100.00
2023-02-16T18:35:13.163Z,100.00
2023-02-16T18:39:14.827Z,100.00
2023-02-16T18:43:16.482Z,100.00
2023-02-16T18:47:18.133Z,100.00
2023-02-16T18:51:23.539Z,100.00
2023-02-16T18:55:27.939Z,100.00
2023-02-16T18:59:29.549Z,100.00
2023-02-16T19:03:31.396Z,100.00
2023-02-16T19:07:33.663Z,100.00
2023-02-16T19:11:37.013Z,100.00
2023-02-16T19:15:38.619Z,100.00
2023-02-16T19:19:40.247Z,100.00
2023-02-16T19:23:42.215Z,100.00
2023-02-16T19:27:45.034Z,100.00
2023-02-16T19:31:47.887Z,100.00
2023-02-16T19:35:49.591Z,100.00
2023-02-16T19:39:51.442Z,100.00
2023-02-16T19:43:53.625Z,100.00
2023-02-16T19:47:55.364Z,100.00
2023-02-16T19:51:57.097Z,100.00
2023-02-16T19:56:00.386Z,100.00
2023-02-16T20:00:03.944Z,100.00
2023-02-16T20:04:13.756Z,100.00
2023-02-16T20:08:15.551Z,100.00
2023-02-16T20:12:17.184Z,100.00
2023-02-16T20:16:20.158Z,100.00
2023-02-16T20:20:21.904Z,100.00
2023-02-16T20:24:23.524Z,100.00
2023-02-16T20:28:27.761Z,100.00
2023-02-16T20:32:33.465Z,100.00
2023-02-16T20:36:35.989Z,100.00
2023-02-16T20:40:37.970Z,100.00
2023-02-16T20:44:39.964Z,100.00
2023-02-16T20:48:42.296Z,100.00
2023-02-16T20:52:46.055Z,100.00
2023-02-16T20:56:47.724Z,99.53
2023-02-16T21:00:49.391Z,97.74
2023-02-16T21:04:51.337Z,94.17
2023-02-16T21:08:53.023Z,92.96
2023-02-16T21:12:54.728Z,91.80
2023-02-16T21:16:59.333Z,90.74
2023-02-16T21:21:02.043Z,89.24
2023-02-16T21:25:03.741Z,88.56
2023-02-16T21:29:05.503Z,87.39
2023-02-16T21:33:07.398Z,86.49
2023-02-16T21:37:09.087Z,85.88
2023-02-16T21:41:27.755Z,83.76
2023-02-16T21:45:29.315Z,83.93
2023-02-16T21:49:30.944Z,83.11
2023-02-16T21:53:32.551Z,83.09
2023-02-16T21:57:34.255Z,81.02
2023-02-16T22:01:39.711Z,80.23
2023-02-16T22:05:41.412Z,79.37
2023-02-16T22:09:44.966Z,79.13
2023-02-16T22:13:47.043Z,78.13
2023-02-16T22:17:49.742Z,78.41
2023-02-16T22:21:52.378Z,76.71
2023-02-16T22:25:54.242Z,76.99
2023-02-16T22:29:55.969Z,77.51
2023-02-16T22:34:00.057Z,76.91
2023-02-16T22:38:01.692Z,76.44
2023-02-16T22:42:03.342Z,78.40
2023-02-16T22:46:13.093Z,79.56
2023-02-16T22:50:14.735Z,79.97
2023-02-16T22:54:16.494Z,81.77
2023-02-16T22:58:18.188Z,82.95
2023-02-16T23:02:19.946Z,83.45
2023-02-16T23:06:25.655Z,84.70
2023-02-16T23:10:27.251Z,85.40
2023-02-16T23:14:29.316Z,85.01
2023-02-16T23:18:31.777Z,84.45
2023-02-16T23:22:35.371Z,85.04
2023-02-16T23:26:37.025Z,86.74
2023-02-16T23:30:43.798Z,89.04
2023-02-16T23:34:45.468Z,89.88
2023-02-16T23:38:47.048Z,89.79
2023-02-16T23:42:50.357Z,88.69
2023-02-16T23:46:51.990Z,86.81
2023-02-16T23:50:53.940Z,85.14
2023-02-16T23:54:55.694Z,83.94
2023-02-16T23:59:00.016Z,83.58
